Time;durP1;ratioP1;P1;durP2;ratioP2;P2;SDS_P1;SDS_P2;PMS_P1;PMS_P2;Temp;Humidity;BMP_temperature;BMP_pressure;BME280_temperature;BME280_humidity;BME280_pressure;Samples;Min_cycle;Max_cycle;Signal;HPM_P1;HPM_P2
2023/10/11 00:02:59;;;;;;;16.42;8.18;;;;;;;;;;4992794;28;25063;-73
2023/10/11 00:05:33;;;;;;;17.85;9.10;;;;;;;;;;4995049;28;25137;-74
2023/10/11 00:08:01;;;;;;;15.13;8.18;;;;;;;;;;4994587;28;25069;-76
2023/10/11 00:10:28;;;;;;;17.60;9.35;;;;;;;;;;4996604;28;25084;-72
2023/10/11 00:12:58;;;;;;;16.35;9.93;;;;;;;;;;4996827;28;25059;-72
2023/10/11 00:15:29;;;;;;;24.08;10.35;;;;;;;;;;4992948;28;25107;-74
2023/10/11 00:17:55;;;;;;;20.27;10.77;;;;;;;;;;4993033;28;25066;-74
2023/10/11 00:23:06;;;;;;;18.35;9.85;;;;;;;;;;4986250;28;25061;-73
2023/10/11 00:25:32;;;;;;;19.42;9.50;;;;;;;;;;4992463;28;25056;-76
2023/10/11 00:27:58;;;;;;;20.08;9.82;;;;;;;;;;4990288;28;25092;-78
2023/10/11 00:30:24;;;;;;;16.58;9.23;;;;;;;;;;4989112;28;25112;-73
2023/10/11 00:32:52;;;;;;;19.17;10.18;;;;;;;;;;4989287;28;25083;-74
2023/10/11 00:35:18;;;;;;;22.02;10.00;;;;;;;;;;4989446;28;25059;-76
2023/10/11 00:37:51;;;;;;;20.83;10.45;;;;;;;;;;4969061;28;25070;-74
2023/10/11 00:40:32;;;;;;;18.58;10.45;;;;;;;;;;4989794;28;25079;-74
2023/10/11 00:42:59;;;;;;;24.17;11.07;;;;;;;;;;4994615;28;25160;-76
2023/10/11 00:45:26;;;;;;;21.42;10.85;;;;;;;;;;4998291;28;25130;-73
2023/10/11 00:47:56;;;;;;;21.90;10.48;;;;;;;;;;4988228;28;25064;-74
2023/10/11 00:50:24;;;;;;;17.88;10.85;;;;;;;;;;4987212;28;25055;-73
2023/10/11 00:52:51;;;;;;;20.13;10.05;;;;;;;;;;4973396;28;25063;-75
2023/10/11 00:55:20;;;;;;;19.73;10.60;;;;;;;;;;4989767;28;25077;-75
2023/10/11 00:57:47;;;;;;;24.58;10.77;;;;;;;;;;4985895;28;25079;-76
2023/10/11 01:00:21;;;;;;;16.33;10.45;;;;;;;;;;4988235;28;25100;-74
2023/10/11 01:02:47;;;;;;;24.65;11.88;;;;;;;;;;4986879;28;25087;-72
2023/10/11 01:05:14;;;;;;;20.25;10.88;;;;;;;;;;4989153;28;25065;-74
2023/10/11 01:07:40;;;;;;;22.27;11.35;;;;;;;;;;4989570;28;25108;-75
2023/10/11 01:10:07;;;;;;;17.95;9.73;;;;;;;;;;4989686;28;25153;-73
2023/10/11 01:12:33;;;;;;;21.88;10.77;;;;;;;;;;4972969;28;25083;-76
2023/10/11 01:14:59;;;;;;;19.42;10.55;;;;;;;;;;4996100;28;25055;-74
2023/10/11 01:17:32;;;;;;;23.30;11.32;;;;;;;;;;4997504;28;25162;-73
2023/10/11 01:19:59;;;;;;;22.95;11.20;;;;;;;;;;4997410;28;25081;-75
2023/10/11 01:22:27;;;;;;;20.40;11.23;;;;;;;;;;4989332;28;25050;-71
2023/10/11 01:24:54;;;;;;;17.67;12.10;;;;;;;;;;5004883;28;25076;-74
2023/10/11 01:27:22;;;;;;;24.45;11.52;;;;;;;;;;5004902;28;25060;-73
2023/10/11 01:29:48;;;;;;;17.73;11.60;;;;;;;;;;4975074;28;25099;-75
2023/10/11 01:32:14;;;;;;;25.00;13.38;;;;;;;;;;4989851;28;25096;-74
2023/10/11 01:34:43;;;;;;;21.88;12.90;;;;;;;;;;4995708;28;25088;-72
2023/10/11 01:37:09;;;;;;;23.70;12.07;;;;;;;;;;4999810;28;25074;-71
2023/10/11 01:39:35;;;;;;;22.67;11.85;;;;;;;;;;4988764;28;25054;-73
2023/10/11 01:42:01;;;;;;;27.15;12.10;;;;;;;;;;5004122;28;25047;-75
2023/10/11 01:44:29;;;;;;;25.65;12.65;;;;;;;;;;5000230;28;25066;-74
2023/10/11 01:46:55;;;;;;;18.23;11.02;;;;;;;;;;5002129;28;25057;-74
2023/10/11 01:49:21;;;;;;;24.60;12.27;;;;;;;;;;5001569;28;25077;-76
2023/10/11 01:51:47;;;;;;;26.70;12.40;;;;;;;;;;5002576;28;25074;-73
2023/10/11 01:54:15;;;;;;;22.83;12.15;;;;;;;;;;4999761;28;25052;-74
2023/10/11 01:56:41;;;;;;;19.85;11.30;;;;;;;;;;5003190;28;25086;-73
2023/10/11 01:59:07;;;;;;;21.23;11.55;;;;;;;;;;4989315;28;25087;-72
2023/10/11 02:01:40;;;;;;;19.85;11.73;;;;;;;;;;5002142;28;25072;-73
2023/10/11 02:04:10;;;;;;;25.13;12.38;;;;;;;;;;5006247;28;25122;-71
2023/10/11 02:06:38;;;;;;;26.95;13.35;;;;;;;;;;4999963;28;25131;-74
2023/10/11 02:09:04;;;;;;;22.98;10.95;;;;;;;;;;5003434;28;25112;-72
2023/10/11 02:11:30;;;;;;;21.90;11.57;;;;;;;;;;5002444;28;25075;-77
2023/10/11 02:14:00;;;;;;;17.90;11.40;;;;;;;;;;4999943;28;25077;-75
2023/10/11 02:16:28;;;;;;;17.58;11.35;;;;;;;;;;5000196;28;25090;-69
2023/10/11 02:19:05;;;;;;;21.90;11.80;;;;;;;;;;5007823;28;25097;-74
2023/10/11 02:21:31;;;;;;;22.52;11.57;;;;;;;;;;5008601;28;25162;-73
2023/10/11 02:23:58;;;;;;;20.60;11.40;;;;;;;;;;5001041;28;25088;-74
2023/10/11 02:26:34;;;;;;;24.73;12.27;;;;;;;;;;5001198;28;25058;-75
2023/10/11 02:29:01;;;;;;;17.63;11.95;;;;;;;;;;4995682;28;25050;-75
2023/10/11 02:31:31;;;;;;;17.38;10.88;;;;;;;;;;4999824;28;25074;-73
2023/10/11 02:34:07;;;;;;;22.42;12.57;;;;;;;;;;4996127;28;25069;-74
2023/10/11 02:36:36;;;;;;;22.38;12.65;;;;;;;;;;4978468;28;25092;-74
2023/10/11 02:39:06;;;;;;;23.02;11.90;;;;;;;;;;4976419;28;25076;-73
2023/10/11 02:41:32;;;;;;;20.50;12.00;;;;;;;;;;4999771;28;25044;-73
2023/10/11 02:43:58;;;;;;;19.42;11.65;;;;;;;;;;4994659;28;25119;-73
2023/10/11 02:46:25;;;;;;;22.38;12.77;;;;;;;;;;5002073;28;25073;-73
2023/10/11 02:49:05;;;;;;;27.17;13.55;;;;;;;;;;4999524;28;25089;-72
2023/10/11 02:51:33;;;;;;;23.00;12.70;;;;;;;;;;4998843;28;25049;-76
2023/10/11 02:54:05;;;;;;;20.45;12.50;;;;;;;;;;5000577;28;25057;-74
2023/10/11 02:56:46;;;;;;;22.48;12.27;;;;;;;;;;5000751;28;25144;-72
2023/10/11 02:59:12;;;;;;;19.42;13.25;;;;;;;;;;4979648;28;25091;-72
2023/10/11 03:01:38;;;;;;;24.70;13.10;;;;;;;;;;4993948;28;25071;-74
2023/10/11 03:04:07;;;;;;;19.98;12.27;;;;;;;;;;4984777;28;25066;-73
2023/10/11 03:06:35;;;;;;;25.30;14.02;;;;;;;;;;4996472;28;25074;-73
2023/10/11 03:09:01;;;;;;;25.15;12.57;;;;;;;;;;4999282;28;25053;-74
2023/10/11 03:11:29;;;;;;;23.95;13.50;;;;;;;;;;5000131;28;25087;-74
2023/10/11 03:13:56;;;;;;;23.60;14.05;;;;;;;;;;4990532;28;25103;-76
2023/10/11 03:16:23;;;;;;;23.38;14.32;;;;;;;;;;4999313;28;25142;-74
2023/10/11 03:18:52;;;;;;;29.75;14.75;;;;;;;;;;4994337;28;25132;-75
2023/10/11 03:21:21;;;;;;;29.42;15.48;;;;;;;;;;4988097;28;25142;-74
2023/10/11 03:23:48;;;;;;;27.00;14.48;;;;;;;;;;4997160;28;25044;-75
2023/10/11 03:26:31;;;;;;;24.92;14.18;;;;;;;;;;4992380;28;25066;-75
2023/10/11 03:29:03;;;;;;;29.35;15.95;;;;;;;;;;4997562;28;25074;-75
2023/10/11 03:31:31;;;;;;;26.13;15.02;;;;;;;;;;4982891;28;25054;-75
2023/10/11 03:33:59;;;;;;;31.85;14.38;;;;;;;;;;4992808;28;25072;-71
2023/10/11 03:36:32;;;;;;;24.48;15.30;;;;;;;;;;4996317;28;25165;-73
2023/10/11 03:38:58;;;;;;;31.10;16.02;;;;;;;;;;4992064;28;25062;-73
2023/10/11 03:41:35;;;;;;;28.35;15.75;;;;;;;;;;4992626;28;25095;-75
2023/10/11 03:44:09;;;;;;;26.67;14.85;;;;;;;;;;4997526;28;25050;-74
2023/10/11 03:46:35;;;;;;;29.33;16.13;;;;;;;;;;4997409;28;25099;-73
2023/10/11 03:51:48;;;;;;;30.92;15.93;;;;;;;;;;4961310;28;25086;-73
2023/10/11 03:54:19;;;;;;;28.38;14.77;;;;;;;;;;4999707;28;25063;-73
2023/10/11 03:56:52;;;;;;;25.83;14.85;;;;;;;;;;4997120;28;25111;-74
2023/10/11 03:59:19;;;;;;;25.70;14.60;;;;;;;;;;4986213;28;25092;-75
2023/10/11 04:01:45;;;;;;;35.92;15.80;;;;;;;;;;4981745;28;25050;-75
2023/10/11 04:04:11;;;;;;;21.10;14.38;;;;;;;;;;4996581;28;25192;-72
2023/10/11 04:06:37;;;;;;;26.00;14.30;;;;;;;;;;4997024;28;25066;-73
2023/10/11 04:09:03;;;;;;;26.20;14.82;;;;;;;;;;4999620;28;25074;-76
2023/10/11 04:14:24;;;;;;;33.38;16.13;;;;;;;;;;4993995;28;25087;-76
2023/10/11 04:16:52;;;;;;;27.30;14.88;;;;;;;;;;4995790;28;25283;-74
2023/10/11 04:19:22;;;;;;;29.88;15.07;;;;;;;;;;5000050;28;25103;-74
2023/10/11 04:24:19;;;;;;;28.40;15.50;;;;;;;;;;5001294;28;25067;-76
2023/10/11 04:26:53;;;;;;;33.50;16.60;;;;;;;;;;4993698;28;25059;-75
2023/10/11 04:29:22;;;;;;;25.73;15.15;;;;;;;;;;4989315;28;25097;-74
2023/10/11 04:34:33;;;;;;;28.65;15.93;;;;;;;;;;4987812;28;25066;-72
2023/10/11 04:37:00;;;;;;;;;;;;;;;;;;4986126;28;25072;-72
2023/10/11 04:39:49;;;;;;;28.10;16.15;;;;;;;;;;4997105;28;25068;-74
2023/10/11 04:42:15;;;;;;;26.85;14.93;;;;;;;;;;4991512;28;25060;-75
2023/10/11 04:44:54;;;;;;;27.33;16.00;;;;;;;;;;4996493;28;25089;-74
2023/10/11 04:47:21;;;;;;;21.50;14.23;;;;;;;;;;4995965;28;25094;-74
2023/10/11 04:49:48;;;;;;;29.58;15.07;;;;;;;;;;4996989;28;25071;-74
2023/10/11 04:52:22;;;;;;;26.33;14.82;;;;;;;;;;4996718;28;25101;-75
2023/10/11 04:54:54;;;;;;;29.25;15.05;;;;;;;;;;4974836;28;25084;-74
2023/10/11 04:57:40;;;;;;;33.50;17.45;;;;;;;;;;4997201;28;25076;-75
2023/10/11 05:00:10;;;;;;;26.15;14.70;;;;;;;;;;4993522;28;25055;-73
2023/10/11 05:02:38;;;;;;;24.92;15.63;;;;;;;;;;4991763;28;25071;-74
2023/10/11 05:05:10;;;;;;;38.83;16.80;;;;;;;;;;4993624;28;25099;-75
2023/10/11 05:07:42;;;;;;;28.70;14.95;;;;;;;;;;5003603;28;25060;-75
2023/10/11 05:10:32;;;;;;;30.50;14.98;;;;;;;;;;4994854;28;25098;-74
2023/10/11 05:13:05;;;;;;;26.10;15.68;;;;;;;;;;5004790;28;25075;-72
2023/10/11 05:15:35;;;;;;;23.73;14.77;;;;;;;;;;4978462;28;25072;-74
2023/10/11 05:18:06;;;;;;;26.00;16.00;;;;;;;;;;4995169;28;25076;-73
2023/10/11 05:20:57;;;;;;;30.55;16.77;;;;;;;;;;4998028;28;25072;-74
2023/10/11 05:23:18;;;;;;;34.45;15.95;;;;;;;;;;4998309;28;25144;-73
2023/10/11 05:25:58;;;;;;;30.15;15.43;;;;;;;;;;4997521;28;25062;-74
2023/10/11 05:33:57;;;;;;;30.85;15.52;;;;;;;;;;4996178;28;25144;-73
2023/10/11 05:53:18;;;;;;;29.65;15.27;;;;;;;;;;4999683;28;25051;-76
2023/10/11 05:55:44;;;;;;;29.58;15.02;;;;;;;;;;5006326;28;25056;-75
2023/10/11 05:58:13;;;;;;;24.88;15.23;;;;;;;;;;5002741;28;25099;-75
2023/10/11 06:00:39;;;;;;;28.30;14.95;;;;;;;;;;5005634;28;25090;-75
2023/10/11 06:03:11;;;;;;;29.98;16.40;;;;;;;;;;4988375;28;25065;-76
2023/10/11 06:05:39;;;;;;;32.75;16.73;;;;;;;;;;4998647;28;25070;-74
2023/10/11 06:08:07;;;;;;;23.70;15.13;;;;;;;;;;5012321;28;25084;-75
2023/10/11 06:10:41;;;;;;;23.38;15.15;;;;;;;;;;4992496;28;25068;-73
2023/10/11 06:13:13;;;;;;;28.67;15.77;;;;;;;;;;4996698;28;25060;-72
2023/10/11 06:15:41;;;;;;;27.05;16.27;;;;;;;;;;4995625;28;25075;-74
2023/10/11 06:18:09;;;;;;;29.90;16.40;;;;;;;;;;5003207;28;25065;-72
2023/10/11 06:20:39;;;;;;;29.80;16.90;;;;;;;;;;4999167;28;25065;-74
2023/10/11 06:23:05;;;;;;;31.95;17.42;;;;;;;;;;4994835;28;25058;-73
2023/10/11 06:25:49;;;;;;;36.78;17.38;;;;;;;;;;5001959;28;25152;-75
2023/10/11 06:28:16;;;;;;;33.17;16.13;;;;;;;;;;4980141;28;25064;-75
2023/10/11 06:30:50;;;;;;;30.08;16.02;;;;;;;;;;5004377;28;25061;-75
2023/10/11 06:33:21;;;;;;;29.50;16.63;;;;;;;;;;4984064;28;25053;-76
2023/10/11 06:35:49;;;;;;;39.00;17.17;;;;;;;;;;4982332;28;25088;-75
2023/10/11 06:38:15;;;;;;;28.67;17.23;;;;;;;;;;4998492;28;25132;-75
2023/10/11 06:40:54;;;;;;;30.52;15.48;;;;;;;;;;4999000;28;25139;-74
2023/10/11 06:43:20;;;;;;;29.55;15.52;;;;;;;;;;4992143;28;25055;-72
2023/10/11 06:45:49;;;;;;;32.28;16.52;;;;;;;;;;4995418;28;25053;-73
2023/10/11 06:48:15;;;;;;;36.85;16.33;;;;;;;;;;4999611;28;25134;-74
2023/10/11 06:50:41;;;;;;;32.83;17.48;;;;;;;;;;4995122;28;25133;-74
2023/10/11 06:53:08;;;;;;;36.80;18.85;;;;;;;;;;4999168;28;25135;-72
2023/10/11 06:55:35;;;;;;;35.03;17.33;;;;;;;;;;5002294;28;25072;-74
2023/10/11 06:58:08;;;;;;;32.05;17.50;;;;;;;;;;5000473;28;25068;-75
2023/10/11 07:00:37;;;;;;;36.38;18.73;;;;;;;;;;5005236;28;25088;-73
2023/10/11 07:03:21;;;;;;;33.63;18.48;;;;;;;;;;4992612;28;25128;-73
2023/10/11 07:05:48;;;;;;;42.25;18.05;;;;;;;;;;5004282;28;25075;-74
2023/10/11 07:08:18;;;;;;;33.38;18.20;;;;;;;;;;4997261;28;25071;-72
2023/10/11 07:11:00;;;;;;;36.05;18.48;;;;;;;;;;4979716;28;25134;-74
2023/10/11 07:13:46;;;;;;;37.25;18.75;;;;;;;;;;4990559;28;25058;-71
2023/10/11 07:16:12;;;;;;;34.45;18.33;;;;;;;;;;4993931;28;25114;-71
2023/10/11 07:18:43;;;;;;;35.30;18.60;;;;;;;;;;5000060;28;25084;-73
2023/10/11 07:21:09;;;;;;;37.83;18.42;;;;;;;;;;4997921;28;25143;-71
2023/10/11 07:23:51;;;;;;;36.80;17.30;;;;;;;;;;4992765;28;25078;-73
2023/10/11 07:26:48;;;;;;;33.83;17.27;;;;;;;;;;4988996;28;25121;-73
2023/10/11 07:29:12;;;;;;;32.50;18.27;;;;;;;;;;4985739;28;25051;-73
2023/10/11 07:31:48;;;;;;;31.55;17.77;;;;;;;;;;4998696;28;25062;-73
2023/10/11 07:34:17;;;;;;;43.08;19.05;;;;;;;;;;4993398;28;25131;-74
2023/10/11 07:36:43;;;;;;;35.88;17.35;;;;;;;;;;4995119;28;25076;-73
2023/10/11 07:39:26;;;;;;;35.03;18.08;;;;;;;;;;4993029;28;25082;-74
2023/10/11 07:42:00;;;;;;;36.28;18.42;;;;;;;;;;4980997;28;25083;-72
2023/10/11 07:44:28;;;;;;;36.15;18.88;;;;;;;;;;4974792;28;25062;-72
2023/10/11 07:46:55;;;;;;;37.97;20.02;;;;;;;;;;4989475;28;25081;-75
2023/10/11 07:49:24;;;;;;;42.40;19.77;;;;;;;;;;4993441;28;25065;-75
2023/10/11 07:51:58;;;;;;;37.67;21.17;;;;;;;;;;4994466;28;25087;-74
2023/10/11 07:54:25;;;;;;;36.80;20.33;;;;;;;;;;4991125;28;25144;-74
2023/10/11 07:56:56;;;;;;;38.05;21.17;;;;;;;;;;5000636;28;25079;-74
2023/10/11 07:59:26;;;;;;;48.75;24.02;;;;;;;;;;4990699;28;25066;-73
2023/10/11 08:01:54;;;;;;;40.83;21.98;;;;;;;;;;4996332;28;25071;-75
2023/10/11 08:04:27;;;;;;;54.20;22.23;;;;;;;;;;4991704;28;25053;-73
2023/10/11 08:06:59;;;;;;;46.20;22.58;;;;;;;;;;4995017;28;25087;-72
2023/10/11 08:09:26;;;;;;;42.07;22.47;;;;;;;;;;4980995;28;25068;-73
2023/10/11 08:11:53;;;;;;;41.00;23.05;;;;;;;;;;4992895;28;25059;-74
2023/10/11 08:14:22;;;;;;;40.83;22.90;;;;;;;;;;4993405;28;25062;-73
2023/10/11 08:16:52;;;;;;;53.08;23.17;;;;;;;;;;4970241;28;25176;-74
2023/10/11 08:19:18;;;;;;;47.35;24.02;;;;;;;;;;4995922;28;25068;-72
2023/10/11 08:21:54;;;;;;;47.95;23.77;;;;;;;;;;4998361;28;25088;-74
2023/10/11 08:24:24;;;;;;;48.95;23.58;;;;;;;;;;4996969;28;25090;-72
2023/10/11 08:26:52;;;;;;;55.42;25.92;;;;;;;;;;4991304;28;25146;-75
2023/10/11 08:29:30;;;;;;;48.10;25.05;;;;;;;;;;4986703;28;25059;-73
2023/10/11 08:31:57;;;;;;;44.33;25.80;;;;;;;;;;4989444;28;25059;-73
2023/10/11 08:34:27;;;;;;;51.28;26.02;;;;;;;;;;4990495;28;25138;-72
2023/10/11 08:36:57;;;;;;;53.40;28.10;;;;;;;;;;4994677;28;25094;-76
2023/10/11 08:39:44;;;;;;;51.95;28.30;;;;;;;;;;4990222;28;25093;-76
2023/10/11 08:42:11;;;;;;;48.78;27.23;;;;;;;;;;4963898;28;25206;-71
2023/10/11 08:44:40;;;;;;;46.33;27.67;;;;;;;;;;4985361;28;25069;-72
2023/10/11 08:47:06;;;;;;;54.13;27.50;;;;;;;;;;4986785;28;25092;-72
2023/10/11 08:49:41;;;;;;;53.00;26.92;;;;;;;;;;4992167;28;25134;-74
2023/10/11 08:52:11;;;;;;;50.72;27.80;;;;;;;;;;4991869;28;25160;-71
2023/10/11 08:54:40;;;;;;;52.58;27.20;;;;;;;;;;4988190;28;25066;-73
2023/10/11 08:57:07;;;;;;;56.13;27.55;;;;;;;;;;4986406;28;25056;-73
2023/10/11 08:59:39;;;;;;;56.55;27.25;;;;;;;;;;4993256;28;25089;-73
2023/10/11 09:02:08;;;;;;;56.30;27.23;;;;;;;;;;4994481;28;25064;-71
2023/10/11 09:04:35;;;;;;;50.42;28.50;;;;;;;;;;4997705;28;25076;-75
2023/10/11 09:07:02;;;;;;;56.13;27.33;;;;;;;;;;4994808;28;25081;-76
2023/10/11 09:09:40;;;;;;;44.90;26.13;;;;;;;;;;4987734;28;25055;-74
2023/10/11 09:12:26;;;;;;;55.58;25.75;;;;;;;;;;4987686;28;25130;-71
2023/10/11 09:14:58;;;;;;;58.25;26.42;;;;;;;;;;4988193;28;25086;-74
2023/10/11 09:17:25;;;;;;;45.50;24.40;;;;;;;;;;4990656;28;25104;-74
2023/10/11 09:19:53;;;;;;;48.80;23.67;;;;;;;;;;4991076;28;25069;-74
2023/10/11 09:22:19;;;;;;;46.97;23.15;;;;;;;;;;4989316;28;25066;-73
2023/10/11 09:24:45;;;;;;;49.20;22.77;;;;;;;;;;4986927;28;25057;-74
2023/10/11 09:29:43;;;;;;;;;;;;;;;;;;4992662;28;25067;-71
2023/10/11 09:32:13;;;;;;;47.10;23.27;;;;;;;;;;4992293;28;25060;-71
2023/10/11 09:34:42;;;;;;;38.90;21.77;;;;;;;;;;4991053;28;25071;-75
2023/10/11 09:37:11;;;;;;;45.42;21.52;;;;;;;;;;4991266;28;25068;-71
2023/10/11 09:39:46;;;;;;;43.65;20.90;;;;;;;;;;4989751;28;25089;-71
2023/10/11 09:42:14;;;;;;;54.00;21.00;;;;;;;;;;4977154;28;25106;-74
2023/10/11 09:44:43;;;;;;;41.92;20.33;;;;;;;;;;4989667;28;25049;-72
2023/10/11 09:47:16;;;;;;;42.25;19.75;;;;;;;;;;4996915;28;25077;-73
2023/10/11 09:49:42;;;;;;;46.15;21.30;;;;;;;;;;4992863;28;25047;-74
2023/10/11 09:52:11;;;;;;;51.00;20.75;;;;;;;;;;4991751;28;25110;-74
2023/10/11 09:54:39;;;;;;;38.10;19.08;;;;;;;;;;4997787;28;25093;-74
2023/10/11 09:57:13;;;;;;;45.42;20.80;;;;;;;;;;4988464;28;25058;-73
2023/10/11 09:59:59;;;;;;;45.30;19.45;;;;;;;;;;4994322;28;25072;-75
2023/10/11 10:02:31;;;;;;;41.20;19.67;;;;;;;;;;5002556;28;25098;-74
2023/10/11 10:04:57;;;;;;;37.88;21.15;;;;;;;;;;4997964;28;25053;-73
2023/10/11 10:07:25;;;;;;;47.13;19.95;;;;;;;;;;4992821;28;25107;-71
2023/10/11 10:10:01;;;;;;;41.38;18.60;;;;;;;;;;4999238;28;25057;-72
2023/10/11 10:12:32;;;;;;;38.90;18.30;;;;;;;;;;5009835;28;25074;-72
2023/10/11 10:15:07;;;;;;;34.33;17.13;;;;;;;;;;5010167;28;25061;-73
2023/10/11 10:17:33;;;;;;;28.75;14.82;;;;;;;;;;5015925;28;25052;-73
2023/10/11 10:20:19;;;;;;;28.33;14.35;;;;;;;;;;5010272;28;25098;-74
2023/10/11 10:23:05;;;;;;;35.22;16.15;;;;;;;;;;5003581;28;25079;-73
2023/10/11 10:25:31;;;;;;;41.58;14.63;;;;;;;;;;5016171;28;25068;-72
2023/10/11 10:27:57;;;;;;;29.10;12.40;;;;;;;;;;5014285;28;25094;-73
2023/10/11 10:30:27;;;;;;;30.35;13.35;;;;;;;;;;5021498;28;25094;-75
2023/10/11 10:33:12;;;;;;;27.23;12.95;;;;;;;;;;5018504;28;25080;-74
2023/10/11 10:35:38;;;;;;;30.35;11.98;;;;;;;;;;5012210;28;25077;-74
2023/10/11 10:38:09;;;;;;;23.20;11.52;;;;;;;;;;5014938;28;25095;-74
2023/10/11 10:40:37;;;;;;;28.40;11.23;;;;;;;;;;4992782;28;25105;-74
2023/10/11 10:43:14;;;;;;;21.90;9.82;;;;;;;;;;4993518;28;25144;-74
2023/10/11 10:45:40;;;;;;;27.02;9.48;;;;;;;;;;5006741;28;25066;-74
2023/10/11 10:48:29;;;;;;;20.15;8.07;;;;;;;;;;5006818;28;25092;-72
2023/10/11 10:51:04;;;;;;;19.27;7.60;;;;;;;;;;4982588;28;25153;-73
2023/10/11 10:53:50;;;;;;;17.40;6.65;;;;;;;;;;4998961;28;25139;-75
2023/10/11 10:56:24;;;;;;;18.55;6.70;;;;;;;;;;4993331;28;25057;-74
2023/10/11 10:59:03;;;;;;;20.92;7.63;;;;;;;;;;4985527;28;25081;-75
2023/10/11 11:01:33;;;;;;;17.10;6.95;;;;;;;;;;4993220;28;25065;-74
2023/10/11 11:03:59;;;;;;;21.70;8.68;;;;;;;;;;4993484;28;25073;-75
2023/10/11 11:06:36;;;;;;;19.83;7.78;;;;;;;;;;4993706;28;25084;-74
2023/10/11 11:09:02;;;;;;;21.33;8.68;;;;;;;;;;4986024;28;25067;-76
2023/10/11 11:11:34;;;;;;;21.50;7.47;;;;;;;;;;4998911;28;25103;-73
2023/10/11 11:14:07;;;;;;;18.35;8.30;;;;;;;;;;4995813;28;25098;-72
2023/10/11 11:16:33;;;;;;;25.10;7.40;;;;;;;;;;4987640;28;25048;-72
2023/10/11 11:19:10;;;;;;;17.63;8.75;;;;;;;;;;4992906;28;25069;-73
2023/10/11 11:21:44;;;;;;;22.85;9.10;;;;;;;;;;4992698;28;25055;-72
2023/10/11 11:24:34;;;;;;;23.80;9.80;;;;;;;;;;4984578;28;25484;-73
2023/10/11 11:27:28;;;;;;;20.33;10.98;;;;;;;;;;4992794;28;25139;-73
2023/10/11 11:29:54;;;;;;;30.83;11.45;;;;;;;;;;4973958;28;25063;-73
2023/10/11 11:32:37;;;;;;;25.33;12.77;;;;;;;;;;4991990;28;25080;-72
2023/10/11 11:35:09;;;;;;;28.23;11.80;;;;;;;;;;4996792;28;25053;-74
2023/10/11 11:37:39;;;;;;;31.05;12.98;;;;;;;;;;4993442;28;25098;-74
2023/10/11 11:40:19;;;;;;;38.17;13.63;;;;;;;;;;4999449;28;25052;-72
2023/10/11 11:42:48;;;;;;;30.10;13.20;;;;;;;;;;4998765;28;25066;-73
2023/10/11 11:45:17;;;;;;;30.27;14.40;;;;;;;;;;4990194;28;25056;-74
2023/10/11 11:47:55;;;;;;;31.65;12.45;;;;;;;;;;5002493;28;25052;-72
2023/10/11 11:50:22;;;;;;;34.70;13.00;;;;;;;;;;4994143;28;25072;-73
2023/10/11 11:52:57;;;;;;;30.02;12.68;;;;;;;;;;5006344;28;25069;-73
2023/10/11 11:55:23;;;;;;;28.52;13.50;;;;;;;;;;4971970;28;25060;-73
2023/10/11 11:57:50;;;;;;;34.13;13.98;;;;;;;;;;4976188;28;25163;-72
2023/10/11 12:00:38;;;;;;;43.50;16.00;;;;;;;;;;4994087;28;25110;-73
2023/10/11 12:03:04;;;;;;;35.33;16.23;;;;;;;;;;4992205;28;25146;-73
2023/10/11 12:05:37;;;;;;;31.65;15.43;;;;;;;;;;4993484;28;25118;-71
2023/10/11 12:08:04;;;;;;;30.88;13.95;;;;;;;;;;4970997;28;25054;-71
2023/10/11 12:10:32;;;;;;;31.88;15.10;;;;;;;;;;5001970;28;25101;-72
2023/10/11 12:13:05;;;;;;;28.80;14.80;;;;;;;;;;4991265;28;25082;-74
2023/10/11 12:15:31;;;;;;;35.88;15.40;;;;;;;;;;4973831;28;25055;-74
2023/10/11 12:17:58;;;;;;;28.77;13.98;;;;;;;;;;4971598;28;25086;-75
2023/10/11 12:20:33;;;;;;;35.38;15.02;;;;;;;;;;5000185;28;25098;-72
2023/10/11 12:23:07;;;;;;;31.40;15.93;;;;;;;;;;5001149;28;25161;-73
2023/10/11 12:25:33;;;;;;;29.92;15.77;;;;;;;;;;5006563;28;25144;-71
2023/10/11 12:28:02;;;;;;;31.30;15.50;;;;;;;;;;4991600;28;25080;-75
2023/10/11 12:30:28;;;;;;;27.23;14.80;;;;;;;;;;4980051;28;25129;-71
2023/10/11 12:32:54;;;;;;;27.85;13.93;;;;;;;;;;4998788;28;25058;-73
2023/10/11 12:35:23;;;;;;;33.53;14.95;;;;;;;;;;5000712;28;25150;-73
2023/10/11 12:37:49;;;;;;;29.75;15.77;;;;;;;;;;4999497;28;25061;-71
2023/10/11 12:40:24;;;;;;;30.67;16.35;;;;;;;;;;4979850;28;25089;-73
2023/10/11 12:42:50;;;;;;;32.03;17.60;;;;;;;;;;5004233;28;25077;-72
2023/10/11 12:45:16;;;;;;;35.20;17.00;;;;;;;;;;4997893;28;25076;-70
2023/10/11 12:47:43;;;;;;;32.28;16.75;;;;;;;;;;4991750;28;25055;-74
2023/10/11 12:50:09;;;;;;;28.33;15.23;;;;;;;;;;4981238;28;25062;-71
2023/10/11 12:52:38;;;;;;;37.72;17.33;;;;;;;;;;4975253;28;25062;-72
2023/10/11 12:55:06;;;;;;;35.25;16.35;;;;;;;;;;4985949;28;25151;-71
2023/10/11 12:57:33;;;;;;;30.13;16.75;;;;;;;;;;4995839;28;25046;-74
2023/10/11 12:59:59;;;;;;;30.75;15.80;;;;;;;;;;4998711;28;25055;-73
2023/10/11 13:02:33;;;;;;;30.08;15.50;;;;;;;;;;4994266;28;25086;-74
2023/10/11 13:04:59;;;;;;;30.27;15.80;;;;;;;;;;5000212;28;25139;-73
2023/10/11 13:07:26;;;;;;;32.13;15.45;;;;;;;;;;4996043;28;25078;-73
2023/10/11 13:09:54;;;;;;;40.42;14.95;;;;;;;;;;4997219;28;25103;-73
2023/10/11 13:12:20;;;;;;;32.83;14.48;;;;;;;;;;4994425;28;25050;-72
2023/10/11 13:14:51;;;;;;;25.50;14.82;;;;;;;;;;5000677;28;25058;-73
2023/10/11 13:17:17;;;;;;;36.58;15.20;;;;;;;;;;4993497;28;25108;-72
2023/10/11 13:19:45;;;;;;;28.40;14.45;;;;;;;;;;4997780;28;25104;-73
2023/10/11 13:22:12;;;;;;;33.15;14.88;;;;;;;;;;4979489;28;25100;-72
2023/10/11 13:24:38;;;;;;;24.75;14.48;;;;;;;;;;4988755;28;25063;-74
2023/10/11 13:27:07;;;;;;;27.23;14.10;;;;;;;;;;4991836;28;25054;-71
2023/10/11 13:29:33;;;;;;;28.60;15.18;;;;;;;;;;5001395;28;25087;-76
2023/10/11 13:31:59;;;;;;;31.35;15.52;;;;;;;;;;4996873;28;25202;-74
2023/10/11 13:34:28;;;;;;;32.53;13.93;;;;;;;;;;4962740;28;25052;-73
2023/10/11 13:36:57;;;;;;;44.20;15.63;;;;;;;;;;4984175;28;25069;-72
2023/10/11 13:39:26;;;;;;;28.85;14.45;;;;;;;;;;4988779;28;25161;-73
2023/10/11 13:41:56;;;;;;;30.92;14.15;;;;;;;;;;5001567;28;25068;-71
2023/10/11 13:44:25;;;;;;;31.27;16.80;;;;;;;;;;5007860;28;25076;-72
2023/10/11 13:46:52;;;;;;;31.23;15.75;;;;;;;;;;4992152;28;25106;-75
2023/10/11 13:49:25;;;;;;;31.38;16.50;;;;;;;;;;4983063;28;25058;-72
2023/10/11 13:52:04;;;;;;;28.00;15.95;;;;;;;;;;4992548;28;25069;-73
2023/10/11 13:54:38;;;;;;;32.47;16.63;;;;;;;;;;5000376;28;25107;-73
2023/10/11 13:57:07;;;;;;;36.92;19.85;;;;;;;;;;4998851;28;25077;-71
2023/10/11 13:59:37;;;;;;;32.13;17.38;;;;;;;;;;4997006;28;25079;-74
2023/10/11 14:04:56;;;;;;;39.15;20.67;;;;;;;;;;4997618;28;25079;-74
2023/10/11 14:07:25;;;;;;;28.83;17.95;;;;;;;;;;4995653;28;25127;-74
2023/10/11 14:09:57;;;;;;;32.00;17.90;;;;;;;;;;4999044;28;25078;-73
2023/10/11 14:12:33;;;;;;;32.58;18.52;;;;;;;;;;4993521;28;25138;-73
2023/10/11 14:15:00;;;;;;;41.88;19.73;;;;;;;;;;4997895;28;25159;-74
2023/10/11 14:17:26;;;;;;;35.40;19.50;;;;;;;;;;4990728;28;25037;-73
2023/10/11 14:19:53;;;;;;;39.78;19.27;;;;;;;;;;4996507;28;25046;-74
2023/10/11 14:22:19;;;;;;;37.00;17.70;;;;;;;;;;4992003;28;25060;-74
2023/10/11 14:24:48;;;;;;;29.35;16.40;;;;;;;;;;5001707;28;25056;-75
2023/10/11 14:27:17;;;;;;;44.88;19.80;;;;;;;;;;4992089;28;25077;-75
2023/10/11 14:29:46;;;;;;;28.98;16.88;;;;;;;;;;4992313;28;25125;-75
2023/10/11 14:32:14;;;;;;;41.72;17.58;;;;;;;;;;5000908;28;25093;-72
2023/10/11 14:34:40;;;;;;;40.58;17.38;;;;;;;;;;4985163;28;25001;-72
2023/10/11 14:37:08;;;;;;;33.80;16.63;;;;;;;;;;4988186;28;25085;-72
2023/10/11 14:39:36;;;;;;;33.42;17.05;;;;;;;;;;4997347;28;25112;-72
2023/10/11 14:42:04;;;;;;;37.13;16.98;;;;;;;;;;4994210;28;25105;-74
2023/10/11 14:44:31;;;;;;;31.35;15.90;;;;;;;;;;4991396;28;25162;-70
2023/10/11 14:46:57;;;;;;;36.10;16.55;;;;;;;;;;4993397;28;25125;-73
2023/10/11 14:49:23;;;;;;;27.95;15.30;;;;;;;;;;4998186;28;25083;-73
2023/10/11 14:51:49;;;;;;;28.90;15.40;;;;;;;;;;4993993;28;25076;-74
2023/10/11 14:54:15;;;;;;;41.15;15.73;;;;;;;;;;5001786;28;25070;-74
2023/10/11 14:56:41;;;;;;;30.25;15.95;;;;;;;;;;4992116;28;25101;-73
2023/10/11 14:59:12;;;;;;;26.77;15.35;;;;;;;;;;4999123;28;25144;-73
2023/10/11 15:01:39;;;;;;;27.77;14.57;;;;;;;;;;4989097;28;25074;-73
2023/10/11 15:04:11;;;;;;;33.50;14.20;;;;;;;;;;4987515;28;25063;-72
2023/10/11 15:06:38;;;;;;;29.52;13.75;;;;;;;;;;4995910;28;25050;-74
2023/10/11 15:09:10;;;;;;;24.75;14.90;;;;;;;;;;4990680;28;25068;-70
2023/10/11 15:11:36;;;;;;;30.98;14.55;;;;;;;;;;4996543;28;25080;-74
2023/10/11 15:14:07;;;;;;;26.65;13.40;;;;;;;;;;4992227;28;25106;-74
2023/10/11 15:16:33;;;;;;;27.38;13.52;;;;;;;;;;4996669;28;25167;-77
2023/10/11 15:18:59;;;;;;;24.40;14.05;;;;;;;;;;5000035;28;25105;-74